Time;durP1;ratioP1;P1;durP2;ratioP2;P2;SDS_P1;SDS_P2;PMS_P1;PMS_P2;Temp;Humidity;BMP_temperature;BMP_pressure;BME280_temperature;BME280_humidity;BME280_pressure;Samples;Min_cycle;Max_cycle;Signal;HPM_P1;HPM_P2
2023/09/22 00:00:59;;;;;;;14.10;5.15;;;;;;;25.60;56.43;100247.47;5015614;28;20498;-79
2023/09/22 00:03:29;;;;;;;17.63;5.47;;;;;;;25.50;55.47;100253.53;5017251;28;20345;-80
2023/09/22 00:06:02;;;;;;;20.63;5.32;;;;;;;25.42;56.70;100256.66;5002939;28;20524;-79
2023/09/22 00:08:31;;;;;;;17.02;5.68;;;;;;;25.26;56.58;100227.53;5014613;28;20106;-78
2023/09/22 00:11:05;;;;;;;14.82;5.75;;;;;;;24.99;57.28;100191.97;5005022;28;20106;-78
2023/09/22 00:13:32;;;;;;;13.73;5.60;;;;;;;25.30;57.75;100237.69;5010510;28;20529;-79
2023/09/22 00:15:59;;;;;;;22.08;6.05;;;;;;;25.05;57.03;100193.69;5008816;28;20059;-80
2023/09/22 00:18:26;;;;;;;15.45;5.28;;;;;;;25.40;57.59;100249.81;5011760;28;20548;-80
2023/09/22 00:20:54;;;;;;;8.77;5.38;;;;;;;25.14;57.33;100205.81;5016632;28;20290;-78
2023/09/22 00:23:22;;;;;;;10.65;5.03;;;;;;;25.35;57.13;100251.38;5009363;28;20292;-79
2023/09/22 00:25:54;;;;;;;12.00;5.10;;;;;;;25.35;57.74;100245.94;5025405;28;20044;-80
2023/09/22 00:28:28;;;;;;;11.75;5.00;;;;;;;25.32;57.55;100243.72;5005062;28;20124;-78
2023/09/22 00:30:57;;;;;;;15.63;5.18;;;;;;;25.04;57.77;100184.72;5009532;28;20060;-79
2023/09/22 00:33:27;;;;;;;18.35;6.15;;;;;;;25.12;57.17;100202.53;5004791;28;20147;-78
2023/09/22 00:36:01;;;;;;;9.73;4.50;;;;;;;25.28;58.24;100219.97;5015315;28;20052;-78
2023/09/22 00:38:27;;;;;;;9.93;5.45;;;;;;;25.24;57.92;100219.63;5019331;28;20053;-78
2023/09/22 00:40:58;;;;;;;13.02;5.70;;;;;;;25.29;58.09;100230.63;5012057;28;20045;-78
2023/09/22 00:43:25;;;;;;;15.10;5.75;;;;;;;25.28;57.06;100207.22;5007388;28;20475;-79
2023/09/22 00:45:56;;;;;;;16.80;5.72;;;;;;;25.28;57.71;100207.22;5011112;28;20051;-77
2023/09/22 00:48:29;;;;;;;;;;;;;;;24.85;56.41;100156.94;5017365;28;20510;-79
2023/09/22 00:51:01;;;;;;;15.98;5.85;;;;;;;25.30;57.84;100229.53;4992353;28;19936;-80
2023/09/22 00:53:33;;;;;;;15.20;5.55;;;;;;;25.32;58.25;100223.88;5011582;28;20053;-77
2023/09/22 00:56:02;;;;;;;14.02;5.50;;;;;;;25.35;57.94;100212.50;5014969;28;20051;-78
2023/09/22 00:58:29;;;;;;;10.65;5.47;;;;;;;25.33;58.29;100203.78;5003382;28;20084;-79
2023/09/22 01:00:56;;;;;;;12.23;5.03;;;;;;;25.37;58.95;100211.19;5000383;28;20102;-79
2023/09/22 01:03:23;;;;;;;14.43;5.63;;;;;;;25.29;59.11;100199.88;4997170;28;20399;-79
2023/09/22 01:05:51;;;;;;;10.45;5.93;;;;;;;24.53;57.97;100080.59;5012441;28;20444;-78
2023/09/22 01:08:18;;;;;;;15.35;5.80;;;;;;;24.79;58.06;100109.06;5014494;28;20513;-78
2023/09/22 01:10:46;;;;;;;14.85;6.22;;;;;;;24.97;58.55;100145.22;5018966;28;20122;-77
2023/09/22 01:13:16;;;;;;;10.88;5.53;;;;;;;25.31;58.37;100212.16;5012536;28;20099;-78
2023/09/22 01:15:43;;;;;;;13.07;5.50;;;;;;;25.10;58.25;100193.81;5011499;28;20049;-78
2023/09/22 01:18:13;;;;;;;11.80;5.38;;;;;;;25.09;58.79;100186.72;5016236;28;20474;-78
2023/09/22 01:20:44;;;;;;;14.68;5.65;;;;;;;25.18;58.20;100212.47;5006021;28;20064;-77
2023/09/22 01:23:14;;;;;;;17.88;4.93;;;;;;;25.20;58.40;100207.63;5011298;28;20343;-78
2023/09/22 01:25:44;;;;;;;11.55;5.25;;;;;;;25.24;58.56;100225.06;5017237;28;20045;-80
2023/09/22 01:28:11;;;;;;;10.23;5.07;;;;;;;25.25;59.55;100223.19;5021187;28;20088;-77
2023/09/22 01:30:42;;;;;;;17.23;6.07;;;;;;;25.25;59.20;100217.75;5002753;28;20549;-80
2023/09/22 01:33:10;;;;;;;11.55;4.97;;;;;;;25.27;59.01;100213.72;5009500;28;20060;-77
2023/09/22 01:35:37;;;;;;;14.25;5.95;;;;;;;24.91;57.87;100157.88;5009334;28;20106;-77
2023/09/22 01:38:18;;;;;;;11.52;5.65;;;;;;;25.14;57.66;100208.53;5005889;28;20134;-80
2023/09/22 01:40:51;;;;;;;15.00;6.38;;;;;;;25.11;57.98;100209.03;5018917;28;20044;-77
2023/09/22 01:43:18;;;;;;;12.25;5.88;;;;;;;24.98;59.23;100180.28;5012150;28;20460;-78
2023/09/22 01:45:45;;;;;;;14.35;5.15;;;;;;;24.85;57.01;100173.22;5006592;28;20091;-75
2023/09/22 01:48:12;;;;;;;8.88;4.63;;;;;;;25.07;57.42;100226.88;5008581;28;20398;-80
2023/09/22 01:50:41;;;;;;;13.80;6.10;;;;;;;25.00;56.67;100228.91;5024490;28;20065;-77
2023/09/22 01:53:09;;;;;;;15.32;5.88;;;;;;;24.86;56.62;100215.59;5019689;28;20077;-78
2023/09/22 01:55:41;;;;;;;18.42;6.35;;;;;;;24.81;56.78;100217.38;5011400;28;20453;-79
2023/09/22 01:58:08;;;;;;;11.23;5.45;;;;;;;24.74;57.09;100233.81;5012077;28;20448;-77
2023/09/22 02:00:36;;;;;;;17.52;6.53;;;;;;;24.51;56.94;100202.91;4990136;28;20524;-79
2023/09/22 02:03:05;;;;;;;16.42;6.68;;;;;;;24.50;57.17;100209.41;5016282;28;20485;-80
2023/09/22 02:05:34;;;;;;;14.00;6.22;;;;;;;24.46;58.35;100194.66;5023855;28;20134;-78
2023/09/22 02:08:01;;;;;;;17.33;6.20;;;;;;;24.54;57.62;100223.34;5024519;28;20154;-78
2023/09/22 02:10:27;;;;;;;19.67;6.40;;;;;;;24.40;57.88;100205.63;5027352;28;20048;-76
2023/09/22 02:12:54;;;;;;;11.90;6.55;;;;;;;24.33;58.08;100211.16;5025375;28;20059;-78
2023/09/22 02:15:24;;;;;;;13.02;5.70;;;;;;;24.31;58.43;100202.44;5027914;28;20048;-79
2023/09/22 02:17:51;;;;;;;23.92;6.40;;;;;;;24.29;58.27;100204.56;5026831;28;20490;-75
2023/09/22 02:20:18;;;;;;;24.27;7.60;;;;;;;24.24;58.46;100190.88;5027159;28;20132;-81
2023/09/22 02:22:55;;;;;;;22.55;7.22;;;;;;;24.22;58.90;100198.44;5022581;28;20140;-79
2023/09/22 02:25:23;;;;;;;17.75;5.50;;;;;;;24.15;59.46;100181.44;5024781;28;20397;-79
2023/09/22 02:27:53;;;;;;;20.38;6.43;;;;;;;24.19;59.32;100185.34;5017949;28;20474;-78
2023/09/22 02:30:24;;;;;;;21.08;6.65;;;;;;;24.25;58.83;100197.97;5017026;28;20183;-81
2023/09/22 02:32:51;;;;;;;10.82;5.93;;;;;;;24.20;59.82;100184.28;5028969;28;20433;-80
2023/09/22 02:35:23;;;;;;;12.02;5.82;;;;;;;24.27;60.90;100187.69;5023527;28;20345;-81
2023/09/22 02:37:50;;;;;;;12.75;7.20;;;;;;;24.27;59.63;100174.13;5027448;28;20403;-78
2023/09/22 02:40:17;;;;;;;18.60;8.80;;;;;;;24.29;58.99;100177.44;5026715;28;20051;-78
2023/09/22 02:42:44;;;;;;;23.40;6.93;;;;;;;24.08;59.67;100141.75;5019458;28;20052;-77
2023/09/22 02:45:11;;;;;;;18.25;5.95;;;;;;;24.33;59.66;100178.63;5023140;28;20056;-79
2023/09/22 02:47:40;;;;;;;17.65;6.60;;;;;;;24.47;60.80;100169.19;5018684;28;20522;-77
2023/09/22 02:50:10;;;;;;;9.95;5.28;;;;;;;24.48;60.11;100160.00;5028079;28;20045;-77
2023/09/22 02:52:39;;;;;;;10.05;4.68;;;;;;;24.51;60.73;100167.63;5023438;28;20053;-79
2023/09/22 02:55:11;;;;;;;15.63;5.88;;;;;;;24.63;59.46;100173.03;5022113;28;20123;-80
2023/09/22 02:57:40;;;;;;;16.48;6.25;;;;;;;24.57;58.82;100151.50;5024079;28;20531;-78
2023/09/22 03:00:11;;;;;;;17.55;8.15;;;;;;;24.61;58.45;100172.47;5023297;28;20051;-78
2023/09/22 03:02:38;;;;;;;14.13;6.35;;;;;;;24.65;59.04;100164.69;5018369;28;20434;-78
2023/09/22 03:05:08;;;;;;;12.10;5.85;;;;;;;24.57;60.18;100151.50;5022382;28;20060;-78
2023/09/22 03:07:36;;;;;;;8.45;5.78;;;;;;;24.48;60.50;100121.19;5014549;28;20045;-77
2023/09/22 03:10:06;;;;;;;18.85;6.07;;;;;;;24.70;60.67;100152.03;5024029;28;20128;-78
2023/09/22 03:12:34;;;;;;;23.45;6.75;;;;;;;24.83;60.02;100167.22;5019478;28;20511;-78
2023/09/22 03:15:01;;;;;;;10.15;5.65;;;;;;;24.86;60.42;100161.31;5024788;28;20506;-77
2023/09/22 03:17:27;;;;;;;16.70;6.47;;;;;;;24.73;59.40;100131.72;5028748;28;20084;-77
2023/09/22 03:19:58;;;;;;;10.77;5.32;;;;;;;24.44;59.96;100088.28;4995388;28;20065;-78
2023/09/22 03:22:29;;;;;;;12.38;6.00;;;;;;;24.90;59.99;100154.34;4983090;28;20053;-77
2023/09/22 03:25:15;;;;;;;10.88;5.60;;;;;;;24.87;59.91;100151.28;4942898;28;20056;-80
2023/09/22 03:27:58;;;;;;;16.60;5.90;;;;;;;24.42;58.26;100087.69;4989150;28;20583;-78
2023/09/22 03:30:25;;;;;;;10.02;6.20;;;;;;;24.84;60.02;100149.88;4992972;28;20060;-78
2023/09/22 03:32:52;;;;;;;11.07;5.90;;;;;;;24.95;60.09;100153.59;4998136;28;20048;-78
2023/09/22 03:35:23;;;;;;;12.85;5.35;;;;;;;24.89;59.61;100157.28;5001806;28;20064;-80
2023/09/22 03:37:54;;;;;;;16.42;6.97;;;;;;;24.78;59.51;100136.44;5004304;28;20065;-80
2023/09/22 03:40:31;;;;;;;16.30;6.13;;;;;;;24.85;60.08;100147.97;5001852;28;20084;-81
2023/09/22 03:43:03;;;;;;;12.63;6.03;;;;;;;24.91;60.01;100166.03;5007005;28;20487;-80
2023/09/22 03:45:30;;;;;;;11.55;5.95;;;;;;;24.81;60.00;100150.34;5002232;28;20405;-79
2023/09/22 03:47:58;;;;;;;12.68;6.50;;;;;;;24.84;57.68;100163.44;5012242;28;20423;-79
2023/09/22 03:50:45;;;;;;;17.30;6.70;;;;;;;24.32;58.89;100073.88;4994026;28;20044;-76
2023/09/22 03:53:21;;;;;;;18.25;6.78;;;;;;;24.84;58.51;100155.28;4999967;28;20340;-78
2023/09/22 03:55:48;;;;;;;9.43;5.45;;;;;;;24.74;58.99;100149.66;5015042;28;20041;-77
2023/09/22 03:58:16;;;;;;;12.35;5.80;;;;;;;24.83;59.60;100152.81;5021420;28;20049;-78
2023/09/22 04:00:49;;;;;;;15.70;6.32;;;;;;;24.47;58.99;100093.25;5013971;28;20204;-79
2023/09/22 04:03:17;;;;;;;15.48;5.63;;;;;;;24.85;58.60;100159.66;5015682;28;20231;-75
2023/09/22 04:05:51;;;;;;;10.63;5.80;;;;;;;24.81;58.95;100147.66;4999050;28;20257;-78
2023/09/22 04:08:24;;;;;;;16.38;6.03;;;;;;;25.07;59.56;100148.13;4993258;28;20149;-77
2023/09/22 04:11:02;;;;;;;10.07;5.85;;;;;;;24.64;56.80;100103.34;4986863;28;20643;-78
2023/09/22 04:13:48;;;;;;;16.00;6.68;;;;;;;24.82;58.07;100133.00;4972979;28;20064;-79
2023/09/22 04:16:24;;;;;;;21.42;6.55;;;;;;;24.88;57.05;100151.03;4966018;28;20470;-78
2023/09/22 04:19:01;;;;;;;9.80;5.05;;;;;;;24.65;60.07;100099.53;4976300;28;20572;-78
2023/09/22 04:21:48;;;;;;;9.48;5.18;;;;;;;24.89;59.18;100122.81;5005558;28;20130;-76
2023/09/22 04:24:20;;;;;;;12.82;6.53;;;;;;;24.66;59.68;100082.19;5008083;28;20049;-79
2023/09/22 04:26:48;;;;;;;17.83;6.35;;;;;;;24.44;58.93;100060.28;5012545;28;20430;-77
2023/09/22 04:29:14;;;;;;;10.55;5.10;;;;;;;24.97;58.25;100145.22;5013357;28;20053;-79
2023/09/22 04:31:44;;;;;;;13.85;5.72;;;;;;;24.81;57.94;100136.78;5011073;28;20049;-79
2023/09/22 04:34:11;;;;;;;15.20;6.38;;;;;;;24.88;57.24;100153.75;5019226;28;20053;-77
2023/09/22 04:36:39;;;;;;;8.77;5.40;;;;;;;24.67;58.91;100111.00;5007589;28;20060;-79
2023/09/22 04:39:08;;;;;;;11.27;6.03;;;;;;;24.71;57.59;100131.13;5011277;28;20068;-78
2023/09/22 04:41:43;;;;;;;18.63;6.95;;;;;;;24.84;58.09;100141.72;4996711;28;20106;-79
2023/09/22 04:44:30;;;;;;;15.15;5.53;;;;;;;24.92;58.55;100135.91;4992272;28;20337;-79
2023/09/22 04:47:12;;;;;;;12.93;5.13;;;;;;;24.88;59.79;100126.59;5014740;28;20144;-77
2023/09/22 04:49:39;;;;;;;17.10;5.85;;;;;;;24.95;58.07;100138.16;5027077;28;20399;-76
2023/09/22 04:52:07;;;;;;;15.85;6.43;;;;;;;25.04;58.80;100144.00;5028470;28;20045;-75
2023/09/22 04:54:36;;;;;;;19.63;5.72;;;;;;;25.06;58.12;100154.63;5021436;28;20044;-78
2023/09/22 04:57:06;;;;;;;20.25;5.95;;;;;;;25.11;57.75;100152.00;5022789;28;20151;-80
2023/09/22 04:59:33;;;;;;;8.52;5.65;;;;;;;25.08;57.93;100150.59;5032679;28;20544;-76
2023/09/22 05:01:59;;;;;;;10.98;5.47;;;;;;;25.10;58.47;100147.66;5007519;28;20399;-78
2023/09/22 05:04:29;;;;;;;14.68;6.15;;;;;;;24.72;57.67;100065.75;5022505;28;20479;-79
2023/09/22 05:06:56;;;;;;;16.92;6.18;;;;;;;24.88;56.32;100104.88;5024939;28;20132;-76
2023/09/22 05:09:23;;;;;;;20.17;7.05;;;;;;;25.13;55.14;100149.88;5035161;28;20056;-79
2023/09/22 05:11:51;;;;;;;22.88;5.72;;;;;;;25.24;53.87;100143.56;5026938;28;20502;-79
2023/09/22 05:14:19;;;;;;;9.60;5.25;;;;;;;25.29;56.82;100148.28;5030795;28;20522;-81
2023/09/22 05:16:47;;;;;;;12.98;6.15;;;;;;;25.22;56.33;100140.28;5049818;28;20585;-77
2023/09/22 05:19:14;;;;;;;11.82;5.85;;;;;;;24.99;56.87;100102.34;5041519;28;20048;-79
2023/09/22 05:21:48;;;;;;;16.20;6.57;;;;;;;25.10;56.08;100117.78;5025965;28;20212;-79
2023/09/22 05:24:15;;;;;;;17.90;6.40;;;;;;;25.34;54.49;100142.94;5027832;28;20103;-76
2023/09/22 05:26:46;;;;;;;11.73;4.88;;;;;;;25.04;56.81;100094.31;5023329;28;20410;-79
2023/09/22 05:29:16;;;;;;;18.92;6.32;;;;;;;25.29;56.15;100151.84;5048686;28;20102;-76
2023/09/22 05:31:43;;;;;;;19.20;5.88;;;;;;;25.30;55.78;100130.91;4964604;28;20282;-80
2023/09/22 05:34:10;;;;;;;15.80;6.03;;;;;;;25.31;55.77;100129.84;4926179;28;20463;-77
2023/09/22 05:36:37;;;;;;;13.27;6.03;;;;;;;25.34;55.23;100149.22;4969844;28;20076;-78
2023/09/22 05:39:04;;;;;;;9.82;5.43;;;;;;;25.28;55.43;100136.59;4895917;28;20227;-76
2023/09/22 05:41:30;;;;;;;17.27;5.40;;;;;;;25.19;56.11;100123.66;4960302;28;20571;-77
2023/09/22 05:43:57;;;;;;;23.88;6.35;;;;;;;25.00;56.68;100104.00;4980065;28;20050;-78
2023/09/22 05:46:24;;;;;;;14.38;5.88;;;;;;;25.02;57.26;100107.28;4977180;28;20382;-77
2023/09/22 05:48:52;;;;;;;12.98;5.60;;;;;;;24.98;57.05;100106.13;4971681;28;20450;-78
2023/09/22 05:51:19;;;;;;;10.95;5.15;;;;;;;25.20;57.83;100128.03;4972804;28;20307;-78
2023/09/22 05:53:45;;;;;;;12.90;5.57;;;;;;;25.30;57.50;100139.88;4994650;28;20088;-77
2023/09/22 05:56:12;;;;;;;28.15;7.18;;;;;;;25.20;55.15;100128.84;4981526;28;20085;-78
2023/09/22 05:58:40;;;;;;;16.85;5.82;;;;;;;25.31;56.14;100141.53;4978266;28;20054;-79
2023/09/22 06:01:10;;;;;;;16.42;6.10;;;;;;;25.43;57.02;100151.50;4960796;28;20046;-78
2023/09/22 06:03:39;;;;;;;17.13;6.63;;;;;;;25.47;54.98;100149.97;4982022;28;20068;-78
2023/09/22 06:06:11;;;;;;;12.77;5.65;;;;;;;25.25;54.74;100118.06;4971857;28;20076;-80
2023/09/22 06:08:44;;;;;;;16.90;6.45;;;;;;;25.33;55.83;100125.81;4970654;28;20200;-77
2023/09/22 06:11:13;;;;;;;14.50;5.75;;;;;;;25.36;56.09;100128.03;4934959;28;20499;-79
2023/09/22 06:13:41;;;;;;;17.27;6.00;;;;;;;25.27;56.70;100118.66;4967213;28;20136;-78
2023/09/22 06:16:09;;;;;;;18.30;7.07;;;;;;;25.32;55.90;100126.88;4999347;28;20061;-78
2023/09/22 06:18:40;;;;;;;16.33;6.20;;;;;;;25.35;56.64;100148.13;5003917;28;20049;-77
2023/09/22 06:21:07;;;;;;;11.40;5.03;;;;;;;25.33;57.00;100150.25;5007271;28;20057;-77
2023/09/22 06:23:34;;;;;;;11.73;5.43;;;;;;;25.27;57.26;100136.81;4996810;28;20513;-78
2023/09/22 06:26:06;;;;;;;18.52;6.20;;;;;;;24.92;56.07;100095.16;4971577;28;20056;-79
2023/09/22 06:28:33;;;;;;;20.70;7.63;;;;;;;25.19;56.55;100146.19;4993674;28;20414;-78
2023/09/22 06:31:01;;;;;;;19.50;6.03;;;;;;;25.20;56.47;100144.31;4977545;28;20145;-78
2023/09/22 06:33:28;;;;;;;15.23;7.00;;;;;;;24.89;56.01;100089.41;4989746;28;20057;-77
2023/09/22 06:36:03;;;;;;;14.70;5.72;;;;;;;25.43;56.49;100137.91;4999799;28;20341;-78
2023/09/22 06:38:33;;;;;;;13.57;4.65;;;;;;;24.84;56.74;100054.84;4977706;28;20610;-78
2023/09/22 06:41:01;;;;;;;12.73;5.10;;;;;;;25.31;57.68;100129.84;4967384;28;20537;-78
2023/09/22 06:43:30;;;;;;;14.32;5.65;;;;;;;25.28;57.65;100131.16;4958362;28;20050;-78
2023/09/22 06:46:02;;;;;;;16.52;6.45;;;;;;;24.76;57.35;100030.84;4959485;28;20046;-77
2023/09/22 06:48:30;;;;;;;26.05;7.82;;;;;;;25.39;57.15;100140.31;4977039;28;20050;-79
2023/09/22 06:51:00;;;;;;;18.67;6.38;;;;;;;25.53;55.89;100138.09;5024024;28;20041;-79
2023/09/22 06:53:28;;;;;;;18.52;6.78;;;;;;;25.49;56.29;100126.09;5023849;28;20905;-81
2023/09/22 06:56:09;;;;;;;11.43;6.43;;;;;;;25.35;55.86;100099.22;5026087;28;20042;-79
2023/09/22 06:58:40;;;;;;;31.30;7.18;;;;;;;25.58;55.46;100138.16;5010427;28;20046;-80
2023/09/22 07:01:12;;;;;;;14.40;6.13;;;;;;;25.48;55.67;100130.66;4996514;28;20184;-82
2023/09/22 07:03:41;;;;;;;17.48;6.10;;;;;;;25.52;55.71;100128.31;4985147;28;20632;-77
2023/09/22 07:06:14;;;;;;;22.10;7.50;;;;;;;25.56;55.38;100126.75;4981947;28;20050;-78
2023/09/22 07:08:45;;;;;;;19.33;6.88;;;;;;;25.68;55.51;100130.19;4974620;28;20312;-78
2023/09/22 07:11:15;;;;;;;22.48;6.13;;;;;;;25.24;55.75;100075.66;4988474;28;20041;-77
2023/09/22 07:13:45;;;;;;;23.35;7.55;;;;;;;25.46;55.58;100112.97;4981064;28;20050;-81
2023/09/22 07:16:13;;;;;;;20.10;7.28;;;;;;;25.33;55.68;100106.78;5001051;28;20057;-78
2023/09/22 07:18:42;;;;;;;17.75;6.60;;;;;;;25.33;56.03;100112.22;4997229;28;20049;-82
2023/09/22 07:21:09;;;;;;;19.10;6.97;;;;;;;25.50;55.09;100116.84;4997114;28;20061;-78
2023/09/22 07:23:36;;;;;;;20.33;7.00;;;;;;;25.55;56.00;100135.94;4991075;28;20137;-79
2023/09/22 07:26:05;;;;;;;21.60;5.85;;;;;;;25.58;56.36;100140.88;4991207;28;20273;-79
2023/09/22 07:28:34;;;;;;;17.85;6.97;;;;;;;25.13;55.60;100058.34;5005443;28;20378;-78
2023/09/22 07:31:11;;;;;;;21.55;8.05;;;;;;;25.27;54.89;100083.34;4995211;28;20053;-77
2023/09/22 07:33:38;;;;;;;14.95;5.93;;;;;;;25.65;55.13;100133.41;4998236;28;20789;-77
2023/09/22 07:36:05;;;;;;;15.43;6.05;;;;;;;25.73;54.70;100152.03;4989444;28;20130;-78
2023/09/22 07:38:32;;;;;;;14.85;6.18;;;;;;;25.43;54.41;100106.13;4985417;28;20335;-78
2023/09/22 07:41:01;;;;;;;17.88;6.82;;;;;;;25.76;54.46;100154.25;4993887;28;20504;-80
2023/09/22 07:43:31;;;;;;;22.10;7.30;;;;;;;25.68;54.45;100165.53;4988001;28;20057;-79
2023/09/22 07:46:04;;;;;;;24.63;7.13;;;;;;;25.71;55.16;100177.81;4982158;28;20041;-81
2023/09/22 07:48:33;;;;;;;20.67;7.18;;;;;;;25.55;55.44;100168.56;4985046;28;20045;-81
2023/09/22 07:51:00;;;;;;;14.70;6.30;;;;;;;25.54;55.84;100173.19;5004228;28;20556;-79
2023/09/22 07:53:27;;;;;;;18.10;6.43;;;;;;;25.56;56.88;100170.22;4979652;28;20073;-75
2023/09/22 07:55:55;;;;;;;12.90;6.50;;;;;;;25.31;57.04;100141.53;5002734;28;20457;-78
2023/09/22 07:58:22;;;;;;;14.50;6.22;;;;;;;25.57;57.49;100193.59;4999617;28;20049;-78
2023/09/22 08:00:50;;;;;;;16.85;7.18;;;;;;;25.44;56.80;100180.31;4975470;28;20603;-81
2023/09/22 08:03:18;;;;;;;28.08;8.20;;;;;;;25.45;56.30;100195.56;4986587;28;20246;-78
2023/09/22 08:05:46;;;;;;;12.85;6.80;;;;;;;25.15;56.86;100164.03;4978796;28;20060;-79
2023/09/22 08:08:17;;;;;;;14.02;5.90;;;;;;;25.26;56.94;100198.47;4987021;28;20271;-78
2023/09/22 08:10:46;;;;;;;11.73;6.50;;;;;;;25.34;57.43;100211.69;4984674;28;20068;-80
2023/09/22 08:13:13;;;;;;;11.20;6.65;;;;;;;25.32;58.04;100208.38;4978726;28;20511;-79
2023/09/22 08:15:41;;;;;;;16.42;7.90;;;;;;;25.38;57.18;100201.16;4968560;28;20069;-77
2023/09/22 08:18:10;;;;;;;22.52;9.07;;;;;;;25.04;57.25;100171.16;4982806;28;20141;-81
2023/09/22 08:20:46;;;;;;;20.25;8.30;;;;;;;25.17;57.26;100208.06;4978282;28;20577;-79
2023/09/22 08:23:14;;;;;;;19.00;6.57;;;;;;;25.19;58.45;100197.81;4965655;28;20137;-78
2023/09/22 08:25:43;;;;;;;23.15;8.57;;;;;;;25.16;58.12;100206.41;4987399;28;20434;-80
2023/09/22 08:28:17;;;;;;;30.88;9.80;;;;;;;25.19;57.78;100230.41;4924218;28;20321;-82
2023/09/22 08:30:44;;;;;;;39.67;11.52;;;;;;;25.13;58.22;100231.34;4990681;28;20100;-77
2023/09/22 08:33:10;;;;;;;29.05;9.05;;;;;;;25.03;59.17;100198.56;4984720;28;20144;-80
2023/09/22 08:35:41;;;;;;;26.20;8.82;;;;;;;25.13;58.57;100240.31;5010423;28;20223;-78
2023/09/22 08:38:27;;;;;;;26.27;9.23;;;;;;;25.01;58.21;100225.94;4991223;28;20058;-79
2023/09/22 08:40:57;;;;;;;23.58;9.55;;;;;;;25.12;58.70;100262.28;4984296;28;20058;-80
2023/09/22 08:43:25;;;;;;;23.40;9.60;;;;;;;24.92;58.64;100221.97;4991920;28;20120;-81
2023/09/22 08:45:54;;;;;;;33.15;10.50;;;;;;;24.80;58.65;100207.59;5001678;28;20125;-79
2023/09/22 08:48:20;;;;;;;22.15;8.40;;;;;;;24.94;59.30;100236.94;4984274;28;20126;-79
2023/09/22 08:50:48;;;;;;;24.60;9.57;;;;;;;24.92;59.20;100239.06;4980523;28;20700;-78
2023/09/22 08:53:14;;;;;;;26.35;9.82;;;;;;;25.06;59.35;100252.38;5001174;28;20308;-76
2023/09/22 08:55:41;;;;;;;30.85;9.43;;;;;;;24.92;59.58;100224.66;4996759;28;20053;-78
2023/09/22 08:58:08;;;;;;;36.40;10.48;;;;;;;25.04;59.65;100240.94;4984057;28;20180;-81
2023/09/22 09:00:38;;;;;;;19.52;7.18;;;;;;;25.08;60.04;100247.53;4982620;28;20526;-81
2023/09/22 09:03:13;;;;;;;31.95;10.57;;;;;;;25.12;59.47;100241.41;4999244;28;20056;-79
2023/09/22 09:05:43;;;;;;;16.25;8.27;;;;;;;25.17;59.55;100240.69;5006147;28;20627;-79
2023/09/22 09:08:23;;;;;;;35.47;11.60;;;;;;;25.19;59.41;100233.13;4994550;28;20099;-80
2023/09/22 09:10:50;;;;;;;38.85;13.35;;;;;;;25.12;59.06;100238.69;4985138;28;20049;-82
2023/09/22 09:13:24;;;;;;;75.80;16.20;;;;;;;25.05;59.08;100235.28;4993251;28;20045;-82
2023/09/22 09:16:01;;;;;;;84.38;15.82;;;;;;;25.21;59.54;100250.00;4977208;28;20038;-78
2023/09/22 09:18:31;;;;;;;49.92;13.40;;;;;;;25.21;59.51;100238.31;4976497;28;20062;-81
2023/09/22 09:21:10;;;;;;;41.97;12.93;;;;;;;25.18;59.60;100236.91;4993149;28;20514;-78
2023/09/22 09:23:38;;;;;;;18.35;8.88;;;;;;;25.26;59.99;100247.38;4998097;28;20133;-79
2023/09/22 09:26:09;;;;;;;13.15;7.25;;;;;;;24.93;60.25;100177.47;4994658;28;20120;-80
2023/09/22 09:28:44;;;;;;;29.70;10.80;;;;;;;25.32;58.93;100232.84;4962714;28;20445;-80
2023/09/22 09:31:17;;;;;;;28.88;10.35;;;;;;;25.37;59.07;100235.66;4981967;28;20297;-80
2023/09/22 09:33:53;;;;;;;43.95;10.88;;;;;;;25.35;58.84;100237.78;4965155;28;20247;-78
2023/09/22 09:36:20;;;;;;;32.85;11.93;;;;;;;25.37;58.67;100241.09;4970343;28;20046;-79
2023/09/22 09:38:47;;;;;;;16.10;7.22;;;;;;;25.26;58.96;100213.97;5004174;28;20136;-79
2023/09/22 09:41:27;;;;;;;27.48;9.40;;;;;;;25.47;58.81;100228.75;4988572;28;20061;-78
2023/09/22 09:44:03;;;;;;;22.15;8.02;;;;;;;25.52;58.68;100235.09;5000197;28;20133;-80
2023/09/22 09:46:33;;;;;;;35.00;10.15;;;;;;;25.53;58.75;100219.63;5005633;28;20050;-78
2023/09/22 09:49:04;;;;;;;24.85;9.75;;;;;;;25.34;58.03;100184.53;4978441;28;20046;-77
2023/09/22 09:51:38;;;;;;;27.03;9.43;;;;;;;25.68;57.54;100233.50;5001668;28;20057;-78
2023/09/22 09:54:08;;;;;;;25.25;9.02;;;;;;;25.55;58.11;100206.63;4976085;28;20057;-78
2023/09/22 09:56:41;;;;;;;18.92;9.60;;;;;;;25.66;57.38;100222.03;4994552;28;20046;-79
2023/09/22 09:59:11;;;;;;;21.88;8.57;;;;;;;25.74;57.57;100232.50;4980366;28;20057;-80
2023/09/22 10:01:40;;;;;;;26.00;8.50;;;;;;;25.76;57.88;100229.53;4991489;28;20132;-78
2023/09/22 10:04:10;;;;;;;19.52;7.30;;;;;;;25.79;58.19;100224.44;4995463;28;20049;-80
2023/09/22 10:06:38;;;;;;;18.10;7.63;;;;;;;25.66;57.10;100203.00;4985871;28;20509;-79
2023/09/22 10:09:18;;;;;;;21.70;7.45;;;;;;;25.72;56.76;100212.88;4989332;28;20136;-78
2023/09/22 10:11:50;;;;;;;23.50;7.75;;;;;;;25.52;56.16;100180.75;4996107;28;20305;-81
2023/09/22 10:14:42;;;;;;;23.80;7.72;;;;;;;25.78;56.77;100222.78;5000879;28;20514;-76
2023/09/22 10:17:22;;;;;;;20.42;7.55;;;;;;;25.75;57.04;100212.41;5001332;28;20143;-78
2023/09/22 10:19:52;;;;;;;13.50;7.07;;;;;;;25.87;56.63;100208.81;4997899;28;20041;-80
2023/09/22 10:22:20;;;;;;;12.40;6.57;;;;;;;26.03;57.22;100197.09;5007460;28;20047;-79
2023/09/22 10:25:13;;;;;;;22.02;7.93;;;;;;;25.90;54.86;100197.44;4998087;28;20136;-81
2023/09/22 10:27:50;;;;;;;22.25;7.45;;;;;;;25.88;56.59;100183.28;4986514;28;20653;-78
2023/09/22 10:30:43;;;;;;;16.63;7.35;;;;;;;25.92;55.59;100184.41;4981448;28;20046;-78
2023/09/22 10:33:22;;;;;;;16.90;7.45;;;;;;;25.92;56.53;100182.50;4999577;28;20133;-77
2023/09/22 10:35:49;;;;;;;22.58;8.52;;;;;;;25.87;55.75;100173.47;4985648;28;20568;-78
2023/09/22 10:38:19;;;;;;;27.65;8.63;;;;;;;25.11;55.65;100048.81;4978681;28;20057;-79
2023/09/22 10:41:01;;;;;;;16.60;7.10;;;;;;;25.95;55.58;100173.06;4978844;28;20054;-81
2023/09/22 10:43:34;;;;;;;21.42;8.00;;;;;;;25.96;55.69;100185.56;4984314;28;20042;-78
2023/09/22 10:46:01;;;;;;;18.33;6.60;;;;;;;25.58;55.39;100125.44;4984636;28;20345;-78
2023/09/22 10:48:34;;;;;;;21.08;6.97;;;;;;;25.96;55.12;100193.72;4981145;28;20054;-79
2023/09/22 10:51:02;;;;;;;23.38;8.80;;;;;;;25.86;55.60;100174.53;4965338;28;20201;-80
2023/09/22 10:53:38;;;;;;;17.40;7.47;;;;;;;26.06;55.01;100183.00;4970030;28;20113;-81
2023/09/22 10:56:08;;;;;;;25.40;7.95;;;;;;;25.99;55.18;100190.50;4976251;28;20248;-81
2023/09/22 10:58:37;;;;;;;17.52;6.95;;;;;;;25.90;56.17;100172.97;5000853;28;20061;-78
2023/09/22 11:01:07;;;;;;;25.83;7.43;;;;;;;26.00;56.09;100181.28;4981537;28;20153;-79
2023/09/22 11:03:53;;;;;;;19.25;7.35;;;;;;;26.13;56.71;100197.25;4994770;28;20141;-79
2023/09/22 11:06:20;;;;;;;12.32;6.80;;;;;;;25.61;56.72;100112.38;4989420;28;20069;-79
2023/09/22 11:08:52;;;;;;;22.48;7.25;;;;;;;26.03;57.40;100208.00;4996793;28;20526;-79
2023/09/22 11:11:20;;;;;;;23.00;7.05;;;;;;;26.04;57.39;100196.03;4988850;28;20389;-79
2023/09/22 11:13:56;;;;;;;25.77;7.88;;;;;;;25.82;58.13;100185.03;5002049;28;20589;-78
2023/09/22 11:16:29;;;;;;;16.92;7.97;;;;;;;25.79;59.47;100199.97;4986676;28;20489;-78
2023/09/22 11:19:08;;;;;;;19.45;8.23;;;;;;;25.51;63.26;100184.56;4994285;28;20325;-80
2023/09/22 11:21:40;;;;;;;20.48;7.93;;;;;;;25.52;62.53;100194.34;5006900;28;20053;-79
2023/09/22 11:24:13;;;;;;;17.98;7.75;;;;;;;25.54;61.22;100200.34;4980199;28;20346;-79
2023/09/22 11:26:53;;;;;;;18.67;7.45;;;;;;;25.55;61.17;100190.31;4974530;28;20060;-80
2023/09/22 11:29:33;;;;;;;20.50;7.60;;;;;;;25.41;60.60;100178.91;4958611;28;20125;-79
2023/09/22 11:32:10;;;;;;;16.42;6.40;;;;;;;25.49;60.25;100183.16;4955910;28;20268;-80